Monday, October 16, 2017, 4:56 PM CDT
Back to Local

KFOE, Forbes Field

Location: Topeka, KS, United States Lat: 38.933
Local Time: 4:56 PM CDT (21:56 GMT) Lon: -95.65
Time Zone: US/Central Elev: 1079 ft

Show me the last for .
Show Decoded

2017-10-16 15:53 METAR KFOE 162053Z 19014G19KT 10SM CLR 22/04 A3026 RMK AO2 SLP245 T02220039
                 56032 =
2017-10-16 14:53 METAR KFOE 161953Z 23013G17KT 10SM CLR 22/04 A3028 RMK AO2 SLP251 T02220039 =
2017-10-16 13:53 METAR KFOE 161853Z 19008G17KT 10SM CLR 22/04 A3032 RMK AO2 SLP266 T02170044 =
2017-10-16 12:53 METAR KFOE 161753Z 18011G16KT 10SM CLR 21/05 A3036 RMK AO2 SLP279 T02060050
                 10206 20028 58015 =
2017-10-16 11:53 METAR KFOE 161653Z 22006KT 10SM CLR 18/07 A3038 RMK AO2 SLP287 T01830067 =
2017-10-16 10:53 METAR KFOE 161553Z 21007KT 10SM CLR 16/07 A3040 RMK AO2 SLP294 T01560067 =
2017-10-16 09:53 METAR KFOE 161453Z 21005KT 10SM CLR 12/06 A3040 RMK AO2 SLP297 T01170056 53004 =
2017-10-16 08:53 METAR KFOE 161353Z 18003KT 10SM CLR 08/05 A3040 RMK AO2 SLP298 T00830050 =
2017-10-16 07:53 METAR KFOE 161253Z 00000KT 10SM CLR 03/02 A3039 RMK AO2 SLP295 T00330022 =
2017-10-16 06:53 METAR KFOE 161153Z 00000KT 10SM CLR 03/02 A3039 RMK AO2 SLP295 T00330017 10056
                 20033 53006 =
2017-10-16 05:53 METAR KFOE 161053Z 00000KT 10SM CLR 04/03 A3039 RMK AO2 SLP291 T00390028 =
2017-10-16 04:53 METAR KFOE 160953Z AUTO 00000KT 10SM CLR 04/03 A3037 RMK AO2 SLP287 T00440028 =
2017-10-16 03:53 METAR KFOE 160853Z AUTO 00000KT 10SM CLR 06/03 A3037 RMK AO2 SLP285 T00560033
                 50001 =
2017-10-16 02:53 METAR KFOE 160753Z AUTO 00000KT 10SM CLR 05/03 A3038 RMK AO2 SLP289 T00500033 =
2017-10-16 01:53 METAR KFOE 160653Z AUTO 20003KT 10SM CLR 04/03 A3037 RMK AO2 SLP286 T00390028 =
2017-10-16 00:53 METAR KFOE 160553Z AUTO 20003KT 10SM CLR 06/04 A3037 RMK AO2 SLP285 T00560039
                 10117 20050 401780050 58002 =
2017-10-15 23:53 METAR KFOE 160453Z AUTO 00000KT 10SM CLR 07/04 A3037 RMK AO2 SLP287 T00670039 =
2017-10-15 22:53 METAR KFOE 160353Z AUTO 19004KT 10SM CLR 07/04 A3037 RMK AO2 SLP288 T00670039 =
2017-10-15 21:53 METAR KFOE 160253Z 00000KT 10SM CLR 07/05 A3038 RMK AO2 SLP289 T00670050 51008 =
2017-10-15 20:53 METAR KFOE 160153Z 00000KT 10SM CLR 08/03 A3037 RMK AO2 SLP286 T00830033 =
2017-10-15 19:53 METAR KFOE 160053Z 00000KT 10SM CLR 11/03 A3036 RMK AO2 SLP284 T01110028 =
2017-10-15 18:53 METAR KFOE 152353Z 32004KT 10SM CLR 11/03 A3035 RMK AO2 SLP280 T01060033 10178
                 20106 53001 =
2017-10-15 17:53 METAR KFOE 152253Z 33008KT 10SM CLR 16/02 A3035 RMK AO2 SLP276 T01560017 =

Support USWX by starting your Amazon purchase here.